createdAt,value
2019-02-09T00:00:02.743Z,993.85
2019-02-09T00:01:02.734Z,993.87
2019-02-09T00:02:02.729Z,993.85
2019-02-09T00:03:02.733Z,993.82
2019-02-09T00:04:02.702Z,993.81
2019-02-09T00:05:02.683Z,993.78
2019-02-09T00:06:02.670Z,993.74
2019-02-09T00:07:02.660Z,993.81
2019-02-09T00:08:02.696Z,993.78
2019-02-09T00:09:02.669Z,994.03
2019-02-09T00:10:02.629Z,993.96
2019-02-09T00:11:02.621Z,994.06
2019-02-09T00:12:02.608Z,993.87
2019-02-09T00:13:02.624Z,993.78
2019-02-09T00:14:02.588Z,993.77
2019-02-09T00:15:02.579Z,993.60
2019-02-09T00:16:02.586Z,993.78
2019-02-09T00:17:02.558Z,993.80
2019-02-09T00:18:02.593Z,993.84
2019-02-09T00:19:03.731Z,993.91
2019-02-09T00:20:02.524Z,993.82
2019-02-09T00:21:02.509Z,993.75
2019-02-09T00:22:02.501Z,993.73
2019-02-09T00:23:02.494Z,993.74
2019-02-09T00:24:02.514Z,993.76
2019-02-09T00:25:02.464Z,993.77
2019-02-09T00:26:02.458Z,993.78
2019-02-09T00:27:02.441Z,993.78
2019-02-09T00:28:02.430Z,993.61
2019-02-09T00:29:02.443Z,993.68
2019-02-09T00:30:02.407Z,993.62
2019-02-09T00:31:02.398Z,993.69
2019-02-09T00:32:02.388Z,993.65
2019-02-09T00:33:02.375Z,993.65
2019-02-09T00:34:02.387Z,993.60
2019-02-09T00:35:02.383Z,993.52
2019-02-09T00:36:02.358Z,993.48
2019-02-09T00:37:02.331Z,993.50
2019-02-09T00:38:02.321Z,993.52
2019-02-09T00:39:02.347Z,993.60
2019-02-09T00:40:02.296Z,993.53
2019-02-09T00:41:02.287Z,993.47
2019-02-09T00:42:02.296Z,993.51
2019-02-09T00:43:02.273Z,993.44
2019-02-09T00:44:02.253Z,993.45
2019-02-09T00:45:02.274Z,993.43
2019-02-09T00:46:02.232Z,993.51
2019-02-09T00:47:02.226Z,993.48
2019-02-09T00:48:02.205Z,993.59
2019-02-09T00:49:02.197Z,993.57
2019-02-09T00:50:02.220Z,993.57
2019-02-09T00:51:02.187Z,993.52
2019-02-09T00:52:02.163Z,993.65
2019-02-09T00:53:02.163Z,993.58
2019-02-09T00:54:02.146Z,993.56
2019-02-09T00:55:02.150Z,993.56
2019-02-09T00:56:02.126Z,993.57
2019-02-09T00:57:02.104Z,993.60
2019-02-09T00:58:02.107Z,993.51
2019-02-09T00:59:02.087Z,993.48
2019-02-09T01:00:02.108Z,993.56
2019-02-09T01:01:02.061Z,993.52
2019-02-09T01:02:02.052Z,993.47
2019-02-09T01:03:02.040Z,993.55
2019-02-09T01:04:02.037Z,993.47
2019-02-09T01:05:02.067Z,993.56
2019-02-09T01:06:02.018Z,993.48
2019-02-09T01:07:01.998Z,993.45
2019-02-09T01:08:01.989Z,993.54
2019-02-09T01:09:01.978Z,993.51
2019-02-09T01:10:01.967Z,993.43
2019-02-09T01:11:02.125Z,993.48
2019-02-09T01:12:01.940Z,993.51
2019-02-09T01:13:01.945Z,993.49
2019-02-09T01:14:01.921Z,993.48
2019-02-09T01:15:01.907Z,993.39
2019-02-09T01:16:01.922Z,993.31
2019-02-09T01:17:01.894Z,993.27
2019-02-09T01:18:01.882Z,993.19
2019-02-09T01:19:01.864Z,993.01
2019-02-09T01:20:01.851Z,993.12
2019-02-09T01:21:01.863Z,993.04
2019-02-09T01:22:01.845Z,993.05
2019-02-09T01:23:01.855Z,993.02
2019-02-09T01:24:01.819Z,993.01
2019-02-09T01:25:01.795Z,992.99
2019-02-09T01:26:01.815Z,993.00
2019-02-09T01:27:01.774Z,993.01
2019-02-09T01:28:01.783Z,993.10
2019-02-09T01:29:01.751Z,993.15
2019-02-09T01:30:02.815Z,992.99
2019-02-09T01:31:01.759Z,993.00
2019-02-09T01:32:01.719Z,992.94
2019-02-09T01:33:01.708Z,992.89
2019-02-09T01:34:01.701Z,992.85
2019-02-09T01:35:01.713Z,992.78
2019-02-09T01:36:01.713Z,992.81
2019-02-09T01:37:01.665Z,992.83
2019-02-09T01:38:01.660Z,992.80
2019-02-09T01:39:01.646Z,992.79
2019-02-09T01:40:01.650Z,992.78
2019-02-09T01:41:01.626Z,992.75
2019-02-09T01:42:01.695Z,992.74
2019-02-09T01:43:01.603Z,992.67
2019-02-09T01:44:01.593Z,992.71
2019-02-09T01:45:01.578Z,992.64
2019-02-09T01:46:01.603Z,992.66
2019-02-09T01:47:01.563Z,992.65
2019-02-09T01:48:01.543Z,992.69
2019-02-09T01:49:01.540Z,992.54
2019-02-09T01:50:01.528Z,992.55
2019-02-09T01:51:01.566Z,992.47
2019-02-09T01:52:01.500Z,992.56
2019-02-09T01:53:01.494Z,992.51
2019-02-09T01:54:01.479Z,992.58
2019-02-09T01:55:01.507Z,992.54
2019-02-09T01:56:01.460Z,992.65
2019-02-09T01:57:01.467Z,992.54
2019-02-09T01:58:01.441Z,992.70
2019-02-09T01:59:01.426Z,992.69
2019-02-09T02:00:01.411Z,992.62
2019-02-09T02:01:01.402Z,992.62
2019-02-09T02:02:01.453Z,992.59
2019-02-09T02:03:01.387Z,992.48
2019-02-09T02:04:01.373Z,992.58
2019-02-09T02:05:01.389Z,992.60
2019-02-09T02:06:01.344Z,992.59
2019-02-09T02:07:01.334Z,992.62
2019-02-09T02:08:01.359Z,992.63
2019-02-09T02:09:01.319Z,992.59
2019-02-09T02:10:01.310Z,992.70
2019-02-09T02:11:01.300Z,992.51
2019-02-09T02:12:01.326Z,992.51
2019-02-09T02:13:01.310Z,992.50
2019-02-09T02:14:01.257Z,992.48
2019-02-09T02:15:01.285Z,992.49
2019-02-09T02:16:01.238Z,992.50
2019-02-09T02:17:01.224Z,992.47
2019-02-09T02:18:01.344Z,992.56
2019-02-09T02:19:01.204Z,992.48
2019-02-09T02:20:01.203Z,992.55
2019-02-09T02:21:01.183Z,992.49
2019-02-09T02:22:01.234Z,992.48
2019-02-09T02:23:01.182Z,992.50
2019-02-09T02:24:01.148Z,992.41
2019-02-09T02:25:01.148Z,992.44
2019-02-09T02:26:01.128Z,992.74
2019-02-09T02:27:01.114Z,992.50
2019-02-09T02:28:01.137Z,992.45
2019-02-09T02:29:01.096Z,992.40
2019-02-09T02:30:01.080Z,992.54
2019-02-09T02:31:01.069Z,992.54
2019-02-09T02:32:01.056Z,992.35
2019-02-09T02:33:01.092Z,992.46
2019-02-09T02:34:01.033Z,992.51
2019-02-09T02:35:01.050Z,992.42
2019-02-09T02:36:01.013Z,992.41
2019-02-09T02:37:01.030Z,992.39
2019-02-09T02:38:01.035Z,992.39
2019-02-09T02:39:00.980Z,992.34
2019-02-09T02:40:00.976Z,992.41
2019-02-09T02:41:00.971Z,992.40
2019-02-09T02:42:00.945Z,992.40
2019-02-09T02:43:00.970Z,992.36
2019-02-09T02:44:00.934Z,992.35
2019-02-09T02:45:00.913Z,992.35
2019-02-09T02:46:00.907Z,992.32
2019-02-09T02:47:00.899Z,992.32
2019-02-09T02:48:00.917Z,992.27
2019-02-09T02:49:00.876Z,992.24
2019-02-09T02:50:00.857Z,992.21
2019-02-09T02:51:00.852Z,992.23
2019-02-09T02:52:00.836Z,992.20
2019-02-09T02:53:00.852Z,992.19
2019-02-09T02:54:00.842Z,992.00
2019-02-09T02:55:00.813Z,992.03
2019-02-09T02:56:00.795Z,992.03
2019-02-09T02:57:00.780Z,992.06
2019-02-09T02:58:00.773Z,992.00
2019-02-09T02:59:00.784Z,991.99
2019-02-09T03:00:00.753Z,992.09
2019-02-09T03:01:00.737Z,991.97
2019-02-09T03:02:00.725Z,991.90
2019-02-09T03:03:00.714Z,991.90
2019-02-09T03:04:00.727Z,991.83
2019-02-09T03:05:00.694Z,991.83
2019-02-09T03:06:00.682Z,991.93
2019-02-09T03:07:00.688Z,991.97
2019-02-09T03:08:00.659Z,991.94
2019-02-09T03:09:00.672Z,991.86
2019-02-09T03:10:00.639Z,991.90
2019-02-09T03:11:00.638Z,992.17
2019-02-09T03:12:00.629Z,991.93
2019-02-09T03:13:00.607Z,991.96
2019-02-09T03:14:00.627Z,991.94
2019-02-09T03:15:00.624Z,991.95
2019-02-09T03:16:00.573Z,991.93
2019-02-09T03:17:00.561Z,992.11
2019-02-09T03:18:00.549Z,992.11
2019-02-09T03:19:00.590Z,992.04
2019-02-09T03:20:00.541Z,991.94
2019-02-09T03:21:00.529Z,991.94
2019-02-09T03:22:00.506Z,991.89
2019-02-09T03:23:00.496Z,991.92
2019-02-09T03:24:00.485Z,991.93
2019-02-09T03:25:00.535Z,991.88
2019-02-09T03:26:00.463Z,991.87
2019-02-09T03:27:00.451Z,991.90
2019-02-09T03:28:00.443Z,991.91
2019-02-09T03:29:00.432Z,992.00
2019-02-09T03:30:00.419Z,991.94
2019-02-09T03:31:00.443Z,991.92
2019-02-09T03:32:00.396Z,991.97
2019-02-09T03:33:00.406Z,991.91
2019-02-09T03:34:00.385Z,992.00
2019-02-09T03:35:00.368Z,991.92
2019-02-09T03:36:00.394Z,991.92
2019-02-09T03:37:00.353Z,991.89
2019-02-09T03:38:00.330Z,991.88
2019-02-09T03:39:00.322Z,991.91
2019-02-09T03:40:00.339Z,991.94
2019-02-09T03:41:00.319Z,992.02
2019-02-09T03:42:00.286Z,992.06
2019-02-09T03:43:00.273Z,992.12
2019-02-09T03:44:00.270Z,992.12
2019-02-09T03:45:00.282Z,992.12
2019-02-09T03:46:00.271Z,992.12
2019-02-09T03:47:00.234Z,992.10
2019-02-09T03:48:00.221Z,992.21
2019-02-09T03:49:00.211Z,992.11
2019-02-09T03:50:00.242Z,992.20
2019-02-09T03:51:00.210Z,992.15
2019-02-09T03:52:00.179Z,992.20
2019-02-09T03:53:00.165Z,992.27
2019-02-09T03:54:00.164Z,992.18
2019-02-09T03:55:00.239Z,992.14
2019-02-09T03:56:00.166Z,992.21
2019-02-09T03:57:00.132Z,992.23
2019-02-09T03:58:00.161Z,992.31
2019-02-09T03:59:00.100Z,992.28
2019-02-09T04:00:00.192Z,992.19
2019-02-09T04:01:00.115Z,992.20
2019-02-09T04:02:00.066Z,992.12
2019-02-09T04:03:00.066Z,992.13
2019-02-09T04:04:00.058Z,992.16
2019-02-09T04:05:00.033Z,992.27
2019-02-09T04:06:00.022Z,992.22
2019-02-09T04:07:00.034Z,992.20
2019-02-09T04:08:00.000Z,992.16
2019-02-09T04:08:59.991Z,992.19
2019-02-09T04:09:59.980Z,992.25
2019-02-09T04:10:59.971Z,992.20
2019-02-09T04:11:59.980Z,992.23
2019-02-09T04:12:59.946Z,992.24
2019-02-09T04:13:59.932Z,992.26
2019-02-09T04:14:59.923Z,992.22
2019-02-09T04:15:59.909Z,992.23
2019-02-09T04:16:59.927Z,992.33
2019-02-09T04:17:59.896Z,992.31
2019-02-09T04:18:59.877Z,992.27
2019-02-09T04:19:59.868Z,992.32
2019-02-09T04:20:59.855Z,992.34
2019-02-09T04:21:59.869Z,992.30
2019-02-09T04:22:59.834Z,992.35
2019-02-09T04:23:59.827Z,992.23
2019-02-09T04:24:59.816Z,992.26
2019-02-09T04:25:59.810Z,992.29
2019-02-09T04:26:59.829Z,992.21
2019-02-09T04:27:59.821Z,992.25
2019-02-09T04:28:59.769Z,992.37
2019-02-09T04:29:59.761Z,992.34
2019-02-09T04:31:05.961Z,992.37
2019-02-09T04:32:00.733Z,992.34
2019-02-09T04:32:59.766Z,992.31
2019-02-09T04:33:59.736Z,992.36
2019-02-09T04:34:59.700Z,992.33
2019-02-09T04:35:59.700Z,992.30
2019-02-09T04:36:59.684Z,992.29
2019-02-09T04:37:59.692Z,992.35
2019-02-09T04:38:59.657Z,992.23
2019-02-09T04:39:59.646Z,992.25
2019-02-09T04:40:59.635Z,992.26
2019-02-09T04:41:59.623Z,992.21
2019-02-09T04:42:59.637Z,992.38
2019-02-09T04:43:59.604Z,992.31
2019-02-09T04:44:59.591Z,992.30
2019-02-09T04:45:59.583Z,992.25
2019-02-09T04:46:59.570Z,992.32
2019-02-09T04:47:59.595Z,992.24
2019-02-09T04:48:59.551Z,992.25
2019-02-09T04:49:59.545Z,992.33
2019-02-09T04:50:59.533Z,992.26
2019-02-09T04:51:59.514Z,992.35
2019-02-09T04:52:59.509Z,992.33
2019-02-09T04:53:59.545Z,992.35
2019-02-09T04:54:59.490Z,992.32
2019-02-09T04:55:59.471Z,992.35
2019-02-09T04:56:59.459Z,992.37
2019-02-09T04:57:59.479Z,992.43
2019-02-09T04:58:59.437Z,992.37
2019-02-09T04:59:59.426Z,992.40
2019-02-09T05:00:59.417Z,992.31
2019-02-09T05:01:59.410Z,992.35
2019-02-09T05:02:59.460Z,992.35
2019-02-09T05:03:59.391Z,992.44
2019-02-09T05:04:59.373Z,992.27
2019-02-09T05:05:59.357Z,992.47
2019-02-09T05:06:59.350Z,992.44
2019-02-09T05:07:59.343Z,992.43
2019-02-09T05:08:59.359Z,992.50
2019-02-09T05:09:59.318Z,992.39
2019-02-09T05:10:59.302Z,992.57
2019-02-09T05:11:59.303Z,992.47
2019-02-09T05:12:59.292Z,992.51
2019-02-09T05:13:59.295Z,992.49
2019-02-09T05:14:59.261Z,992.55
2019-02-09T05:15:59.250Z,992.51
2019-02-09T05:16:59.235Z,992.55
2019-02-09T05:17:59.253Z,992.53
2019-02-09T05:18:59.351Z,992.48
2019-02-09T05:19:59.203Z,992.54
2019-02-09T05:20:59.193Z,992.54
2019-02-09T05:21:59.181Z,992.58
2019-02-09T05:22:59.171Z,992.58
2019-02-09T05:23:59.159Z,992.51
2019-02-09T05:24:59.186Z,992.51
2019-02-09T05:25:59.143Z,992.51
2019-02-09T05:26:59.126Z,992.58
2019-02-09T05:27:59.119Z,992.55
2019-02-09T05:28:59.130Z,992.44
2019-02-09T05:29:59.117Z,992.56
2019-02-09T05:30:59.081Z,992.71
2019-02-09T05:31:59.070Z,992.66
2019-02-09T05:33:00.701Z,992.76
2019-02-09T05:33:59.060Z,992.69
2019-02-09T05:34:59.062Z,992.82
2019-02-09T05:35:59.027Z,992.62
2019-02-09T05:36:59.020Z,992.73
2019-02-09T05:37:59.009Z,992.73
2019-02-09T05:38:58.999Z,992.73
2019-02-09T05:39:59.010Z,992.72
2019-02-09T05:40:58.979Z,992.83
2019-02-09T05:41:58.964Z,992.80
2019-02-09T05:42:58.953Z,993.01
2019-02-09T05:43:58.941Z,992.97
2019-02-09T05:44:58.957Z,992.89
2019-02-09T05:45:58.948Z,992.89
2019-02-09T05:46:58.918Z,992.99
2019-02-09T05:47:58.906Z,992.94
2019-02-09T05:48:58.891Z,993.02
2019-02-09T05:49:58.880Z,992.98
2019-02-09T05:50:58.886Z,993.07
2019-02-09T05:51:58.859Z,993.15
2019-02-09T05:52:58.839Z,993.13
2019-02-09T05:53:58.828Z,993.03
2019-02-09T05:54:58.821Z,993.12
2019-02-09T05:55:58.833Z,993.13
2019-02-09T05:56:58.795Z,993.10
2019-02-09T05:57:58.800Z,993.28
2019-02-09T05:58:58.779Z,993.18
2019-02-09T05:59:58.772Z,993.16
2019-02-09T06:00:58.773Z,993.21
2019-02-09T06:01:58.750Z,993.23
2019-02-09T06:02:58.755Z,993.30
2019-02-09T06:03:58.718Z,993.32
2019-02-09T06:04:58.709Z,993.42
2019-02-09T06:05:58.721Z,993.30
2019-02-09T06:06:58.686Z,993.34
2019-02-09T06:07:58.683Z,993.38
2019-02-09T06:08:58.673Z,993.32
2019-02-09T06:09:58.676Z,993.42
2019-02-09T06:10:58.671Z,993.51
2019-02-09T06:11:58.628Z,993.48
2019-02-09T06:12:58.622Z,993.72
2019-02-09T06:13:58.614Z,993.40
2019-02-09T06:14:58.608Z,993.42
2019-02-09T06:15:58.622Z,993.47
2019-02-09T06:16:58.574Z,993.60
2019-02-09T06:17:58.564Z,993.53
2019-02-09T06:18:58.564Z,993.51
2019-02-09T06:19:58.543Z,993.51
2019-02-09T06:20:58.576Z,993.60
2019-02-09T06:21:58.554Z,993.41
2019-02-09T06:22:58.516Z,993.50
2019-02-09T06:23:58.498Z,993.55
2019-02-09T06:24:58.485Z,993.50
2019-02-09T06:25:58.486Z,993.45
2019-02-09T06:26:58.497Z,993.62
2019-02-09T06:27:58.453Z,993.47
2019-02-09T06:28:58.442Z,993.65
2019-02-09T06:29:58.431Z,993.59
2019-02-09T06:30:58.421Z,993.72
2019-02-09T06:31:58.433Z,993.71
2019-02-09T06:32:58.409Z,993.69
2019-02-09T06:33:58.386Z,993.69
2019-02-09T06:34:58.375Z,993.58
2019-02-09T06:35:58.371Z,993.75
2019-02-09T06:36:58.383Z,993.74
2019-02-09T06:37:58.345Z,993.68
2019-02-09T06:38:58.333Z,993.73
2019-02-09T06:39:58.321Z,993.67
2019-02-09T06:40:58.311Z,993.84
2019-02-09T06:41:58.298Z,993.63
2019-02-09T06:42:58.317Z,993.60
2019-02-09T06:43:58.283Z,993.98
2019-02-09T06:44:58.285Z,993.71
2019-02-09T06:45:58.255Z,993.73
2019-02-09T06:46:58.271Z,993.80
2019-02-09T06:47:58.231Z,993.71
2019-02-09T06:48:58.221Z,993.69
2019-02-09T06:49:58.211Z,993.68
2019-02-09T06:50:58.199Z,993.66
2019-02-09T06:51:58.222Z,993.68
2019-02-09T06:52:58.185Z,993.75
2019-02-09T06:53:58.166Z,993.79
2019-02-09T06:54:58.162Z,993.75
2019-02-09T06:55:58.152Z,993.83
2019-02-09T06:56:58.162Z,993.73
2019-02-09T06:57:58.125Z,993.76
2019-02-09T06:58:58.114Z,993.81
2019-02-09T06:59:58.105Z,993.89
2019-02-09T07:00:58.092Z,993.92
2019-02-09T07:01:58.109Z,993.79
2019-02-09T07:02:58.074Z,993.80
2019-02-09T07:03:58.057Z,993.79
2019-02-09T07:04:58.049Z,993.94
2019-02-09T07:05:58.034Z,993.87
2019-02-09T07:06:58.026Z,993.98
2019-02-09T07:07:58.048Z,994.08
2019-02-09T07:08:58.003Z,993.98
2019-02-09T07:09:57.992Z,993.96
2019-02-09T07:10:57.984Z,994.08
2019-02-09T07:11:57.968Z,993.94
2019-02-09T07:12:57.999Z,993.96
2019-02-09T07:13:57.958Z,993.88
2019-02-09T07:14:57.958Z,993.99
2019-02-09T07:15:57.931Z,993.97
2019-02-09T07:16:57.916Z,994.09
2019-02-09T07:17:57.936Z,994.03
2019-02-09T07:18:57.942Z,994.12
2019-02-09T07:19:57.879Z,994.16
2019-02-09T07:20:57.868Z,994.13
2019-02-09T07:21:57.862Z,994.18
2019-02-09T07:22:57.890Z,994.16
2019-02-09T07:23:57.860Z,994.10
2019-02-09T07:24:57.823Z,994.19
2019-02-09T07:25:57.819Z,994.18
2019-02-09T07:26:57.807Z,994.17
2019-02-09T07:27:57.823Z,994.14
2019-02-09T07:28:57.782Z,994.12
2019-02-09T07:29:57.774Z,994.13
2019-02-09T07:30:57.768Z,994.15
2019-02-09T07:31:57.753Z,994.11
2019-02-09T07:32:57.750Z,994.13
2019-02-09T07:33:57.749Z,994.31
2019-02-09T07:34:57.718Z,994.29
2019-02-09T07:35:57.708Z,994.42
2019-02-09T07:36:57.693Z,994.37
2019-02-09T07:37:57.681Z,994.37
2019-02-09T07:38:57.697Z,994.33
2019-02-09T07:39:57.689Z,994.45
2019-02-09T07:40:57.654Z,994.42
2019-02-09T07:41:57.643Z,994.62
2019-02-09T07:42:57.631Z,994.57
2019-02-09T07:43:57.663Z,994.50
2019-02-09T07:44:57.612Z,994.49
2019-02-09T07:45:57.603Z,994.55
2019-02-09T07:46:57.587Z,994.67
2019-02-09T07:47:57.569Z,994.55
2019-02-09T07:48:57.568Z,994.58
2019-02-09T07:49:57.585Z,994.59
2019-02-09T07:50:57.539Z,994.64
2019-02-09T07:51:57.533Z,994.70
2019-02-09T07:52:57.534Z,994.72
2019-02-09T07:53:57.509Z,994.61
2019-02-09T07:54:57.528Z,994.62
2019-02-09T07:55:57.486Z,994.68
2019-02-09T07:56:57.471Z,994.56
2019-02-09T07:57:57.462Z,994.61
2019-02-09T07:58:57.453Z,994.71
2019-02-09T07:59:57.471Z,994.66
2019-02-09T08:00:57.441Z,994.85
2019-02-09T08:02:04.436Z,994.37
2019-02-09T08:02:58.411Z,994.69
2019-02-09T08:03:57.407Z,994.75
2019-02-09T08:04:57.419Z,994.68
2019-02-09T08:05:57.405Z,994.77
2019-02-09T08:06:57.366Z,994.74
2019-02-09T08:07:57.360Z,994.72
2019-02-09T08:08:57.338Z,994.91
2019-02-09T08:09:57.360Z,994.88
2019-02-09T08:10:57.339Z,994.82
2019-02-09T08:11:57.318Z,994.80
2019-02-09T08:12:57.294Z,994.90
2019-02-09T08:13:57.292Z,994.73
2019-02-09T08:14:57.306Z,994.81
2019-02-09T08:15:57.287Z,994.86
2019-02-09T08:16:57.258Z,995.00
2019-02-09T08:17:57.246Z,994.92
2019-02-09T08:18:57.237Z,995.02
2019-02-09T08:19:57.223Z,995.05
2019-02-09T08:20:57.245Z,995.02
2019-02-09T08:21:57.238Z,994.89
2019-02-09T08:22:57.196Z,995.07
2019-02-09T08:23:57.175Z,995.07
2019-02-09T08:24:57.171Z,994.98
2019-02-09T08:25:57.208Z,995.14
2019-02-09T08:26:57.157Z,995.12
2019-02-09T08:27:57.145Z,995.02
2019-02-09T08:28:57.124Z,995.13
2019-02-09T08:29:57.112Z,995.07
2019-02-09T08:30:57.124Z,995.18
2019-02-09T08:31:57.126Z,995.16
2019-02-09T08:32:57.080Z,995.15
2019-02-09T08:33:57.069Z,995.11
2019-02-09T08:34:57.071Z,995.13
2019-02-09T08:35:57.069Z,994.99
2019-02-09T08:36:57.030Z,995.09
2019-02-09T08:37:57.018Z,995.10
2019-02-09T08:38:57.014Z,995.31
2019-02-09T08:39:57.008Z,995.13
2019-02-09T08:40:57.013Z,995.13
2019-02-09T08:41:56.978Z,995.09
2019-02-09T08:42:56.975Z,995.00
2019-02-09T08:43:56.957Z,995.01
2019-02-09T08:44:56.946Z,994.85
2019-02-09T08:45:56.936Z,995.00
2019-02-09T08:46:56.949Z,995.13
2019-02-09T08:47:56.909Z,995.03
2019-02-09T08:48:56.905Z,995.29
2019-02-09T08:49:56.894Z,995.13
2019-02-09T08:50:56.878Z,995.30
2019-02-09T08:51:56.895Z,995.15
2019-02-09T08:52:56.872Z,995.20
2019-02-09T08:53:56.846Z,995.25
2019-02-09T08:54:56.831Z,995.23
2019-02-09T08:55:56.824Z,995.26
2019-02-09T08:56:56.841Z,995.36
2019-02-09T08:57:56.810Z,995.28
2019-02-09T08:58:56.790Z,995.40
2019-02-09T08:59:56.785Z,995.33
2019-02-09T09:00:56.765Z,995.30
2019-02-09T09:01:56.789Z,995.25
2019-02-09T09:02:56.743Z,995.27
2019-02-09T09:03:56.733Z,995.42
2019-02-09T09:04:56.733Z,995.40
2019-02-09T09:05:56.721Z,995.47
2019-02-09T09:06:56.721Z,995.46
2019-02-09T09:07:56.711Z,995.43
2019-02-09T09:08:56.674Z,995.59
2019-02-09T09:09:56.669Z,995.49
2019-02-09T09:10:56.702Z,995.74
2019-02-09T09:11:56.668Z,995.46
2019-02-09T09:12:56.743Z,995.50
2019-02-09T09:13:56.629Z,995.39
2019-02-09T09:14:56.610Z,995.69
2019-02-09T09:15:56.601Z,995.61
2019-02-09T09:16:56.593Z,995.65
2019-02-09T09:17:56.611Z,995.48
2019-02-09T09:18:56.566Z,995.41
2019-02-09T09:19:56.554Z,995.78
2019-02-09T09:20:56.555Z,995.48
2019-02-09T09:21:56.541Z,995.45
2019-02-09T09:22:56.590Z,995.69
2019-02-09T09:23:56.511Z,995.47
2019-02-09T09:24:56.502Z,995.65
2019-02-09T09:25:56.487Z,995.50
2019-02-09T09:26:56.486Z,995.73
2019-02-09T09:27:56.474Z,995.67
2019-02-09T09:28:56.500Z,995.47
2019-02-09T09:29:56.449Z,995.75
2019-02-09T09:30:56.433Z,995.54
2019-02-09T09:31:56.425Z,995.50
2019-02-09T09:32:56.413Z,995.37
2019-02-09T09:33:56.432Z,995.45
2019-02-09T09:34:56.398Z,995.44
2019-02-09T09:35:56.376Z,995.43
2019-02-09T09:36:56.376Z,995.71
2019-02-09T09:37:56.363Z,995.58
2019-02-09T09:38:56.371Z,995.31
2019-02-09T09:39:56.332Z,995.38
2019-02-09T09:40:56.332Z,995.51
2019-02-09T09:41:56.313Z,995.53
2019-02-09T09:42:56.302Z,995.41
2019-02-09T09:43:56.331Z,995.48
2019-02-09T09:44:56.283Z,995.48
2019-02-09T09:45:56.271Z,995.42
2019-02-09T09:46:56.275Z,995.59
2019-02-09T09:47:56.250Z,995.35
2019-02-09T09:48:56.262Z,995.48
2019-02-09T09:49:56.234Z,995.46
2019-02-09T09:50:56.212Z,995.59
2019-02-09T09:51:56.203Z,995.60
2019-02-09T09:52:56.233Z,995.62
2019-02-09T09:53:56.202Z,995.53
2019-02-09T09:54:56.166Z,995.64
2019-02-09T09:55:56.163Z,995.50
2019-02-09T09:56:56.148Z,995.49
2019-02-09T09:57:56.145Z,995.57
2019-02-09T09:58:56.149Z,995.64
2019-02-09T09:59:56.145Z,995.70
2019-02-09T10:00:56.104Z,995.79
2019-02-09T10:01:56.095Z,995.73
2019-02-09T10:02:56.089Z,995.70
2019-02-09T10:03:56.075Z,995.57
2019-02-09T10:04:56.108Z,995.55
2019-02-09T10:05:56.051Z,995.54
2019-02-09T10:06:56.035Z,995.54
2019-02-09T10:07:56.032Z,995.64
2019-02-09T10:08:56.014Z,995.54
2019-02-09T10:09:56.039Z,995.71
2019-02-09T10:10:55.993Z,995.56
2019-02-09T10:11:55.981Z,995.73
2019-02-09T10:12:55.971Z,995.58
2019-02-09T10:13:55.957Z,995.64
2019-02-09T10:14:55.974Z,995.51
2019-02-09T10:15:55.980Z,995.68
2019-02-09T10:16:55.936Z,995.54
2019-02-09T10:17:55.914Z,995.48
2019-02-09T10:18:55.896Z,995.69
2019-02-09T10:19:55.931Z,995.61
2019-02-09T10:20:55.892Z,995.48
2019-02-09T10:21:55.869Z,995.71
2019-02-09T10:22:55.855Z,995.61
2019-02-09T10:23:55.852Z,995.69
2019-02-09T10:24:55.878Z,995.86
2019-02-09T10:25:55.855Z,995.73
2019-02-09T10:26:55.810Z,995.96
2019-02-09T10:27:55.804Z,995.78
2019-02-09T10:28:55.804Z,995.85
2019-02-09T10:29:55.834Z,995.80
2019-02-09T10:30:55.771Z,995.80
2019-02-09T10:31:55.754Z,995.81
2019-02-09T10:32:55.758Z,995.58
2019-02-09T10:33:55.734Z,995.85
2019-02-09T10:34:55.724Z,995.83
2019-02-09T10:35:55.813Z,995.76
2019-02-09T10:36:55.705Z,995.77
2019-02-09T10:37:55.689Z,996.12
2019-02-09T10:38:55.676Z,995.88
2019-02-09T10:39:55.676Z,995.93
2019-02-09T10:40:55.703Z,995.83
2019-02-09T10:41:55.659Z,995.89
2019-02-09T10:42:55.649Z,995.82
2019-02-09T10:43:55.624Z,996.20
2019-02-09T10:44:55.643Z,995.93
2019-02-09T10:45:55.625Z,995.81
2019-02-09T10:46:55.606Z,995.98
2019-02-09T10:47:55.579Z,995.90
2019-02-09T10:48:55.568Z,995.94
2019-02-09T10:49:55.552Z,995.88
2019-02-09T10:50:55.571Z,995.89
2019-02-09T10:51:55.532Z,995.95
2019-02-09T10:52:55.526Z,995.85
2019-02-09T10:53:55.515Z,995.78
2019-02-09T10:54:55.504Z,995.61
2019-02-09T10:55:55.520Z,995.77
2019-02-09T10:56:55.475Z,996.08
2019-02-09T10:57:55.471Z,995.78
2019-02-09T10:58:55.454Z,995.97
2019-02-09T10:59:55.444Z,995.93
2019-02-09T11:00:55.459Z,995.71
2019-02-09T11:01:55.420Z,995.65
2019-02-09T11:02:55.910Z,995.97
2019-02-09T11:03:55.413Z,995.74
2019-02-09T11:04:55.389Z,995.72
2019-02-09T11:05:55.428Z,995.94
2019-02-09T11:06:55.367Z,995.87
2019-02-09T11:07:55.357Z,995.67
2019-02-09T11:08:55.361Z,995.68
2019-02-09T11:09:55.356Z,995.95
2019-02-09T11:10:55.337Z,995.94
2019-02-09T11:11:55.335Z,995.91
2019-02-09T11:12:55.299Z,996.04
2019-02-09T11:13:55.290Z,995.89
2019-02-09T11:14:55.276Z,995.81
2019-02-09T11:15:55.274Z,996.06
2019-02-09T11:16:55.279Z,996.03
2019-02-09T11:17:55.243Z,996.29
2019-02-09T11:18:55.241Z,996.48
2019-02-09T11:19:55.219Z,996.09
2019-02-09T11:20:55.211Z,996.12
2019-02-09T11:21:55.223Z,996.26
2019-02-09T11:22:55.191Z,995.97
2019-02-09T11:23:55.172Z,995.69
2019-02-09T11:24:55.165Z,996.10
2019-02-09T11:25:55.159Z,995.83
2019-02-09T11:26:55.144Z,995.71
2019-02-09T11:27:55.156Z,995.89
2019-02-09T11:28:55.117Z,995.93
2019-02-09T11:29:55.117Z,995.92
2019-02-09T11:30:55.735Z,996.03
2019-02-09T11:31:55.561Z,996.21
2019-02-09T11:33:00.732Z,996.34
2019-02-09T11:33:56.064Z,996.24
2019-02-09T11:34:55.052Z,996.20
2019-02-09T11:35:55.045Z,995.85
2019-02-09T11:36:55.041Z,995.92
2019-02-09T11:37:55.051Z,995.84
2019-02-09T11:38:55.036Z,996.00
2019-02-09T11:39:55.012Z,996.23
2019-02-09T11:40:55.015Z,996.02
2019-02-09T11:41:54.994Z,995.75
2019-02-09T11:42:55.038Z,995.88
2019-02-09T11:43:54.963Z,996.19
2019-02-09T11:44:56.250Z,995.94
2019-02-09T11:45:54.930Z,995.95
2019-02-09T11:46:54.921Z,995.95
2019-02-09T11:47:54.952Z,995.89
2019-02-09T11:48:54.899Z,995.78
2019-02-09T11:49:54.888Z,995.96
2019-02-09T11:56:22.944Z,995.94
2019-02-09T11:57:22.834Z,995.94
2019-02-09T11:58:22.864Z,995.93
2019-02-09T11:59:22.823Z,995.91
2019-02-09T12:00:22.807Z,995.87
2019-02-09T12:01:22.795Z,996.01
2019-02-09T12:02:22.800Z,995.96
2019-02-09T12:03:22.810Z,995.96
2019-02-09T12:04:22.760Z,995.86
2019-02-09T12:05:22.751Z,996.10
2019-02-09T12:06:22.741Z,995.98
2019-02-09T12:07:23.883Z,996.10
2019-02-09T12:08:22.725Z,995.98
2019-02-09T12:09:22.734Z,995.86
2019-02-09T12:10:22.703Z,996.03
2019-02-09T12:11:22.679Z,995.89
2019-02-09T12:12:22.681Z,995.94
2019-02-09T12:13:22.668Z,996.02
2019-02-09T12:14:22.687Z,996.24
2019-02-09T12:15:22.635Z,995.85
2019-02-09T12:16:22.627Z,996.14
2019-02-09T12:17:22.612Z,995.96
2019-02-09T12:18:22.607Z,996.10
2019-02-09T12:19:22.634Z,996.26
2019-02-09T12:20:22.586Z,996.02
2019-02-09T12:21:22.571Z,996.02
2019-02-09T12:22:22.557Z,996.17
2019-02-09T12:23:22.546Z,995.96
2019-02-09T12:24:22.562Z,996.02
2019-02-09T12:25:22.527Z,995.96
2019-02-09T12:26:22.517Z,995.96
2019-02-09T12:27:22.506Z,995.92
2019-02-09T12:28:22.495Z,995.95
2019-02-09T12:29:22.506Z,996.03
2019-02-09T12:30:22.496Z,995.92
2019-02-09T12:31:22.465Z,995.86
2019-02-09T12:32:22.453Z,995.80
2019-02-09T12:33:23.438Z,995.89